sensor_id;sensor_type;location;lat;lon;timestamp;pressure;altitude;pressure_sealevel;temperature;humidity
11038;BME280;5572;49.540;11.932;2024-02-14T00:02:28;97611.44;;;0.84;100.00
11038;BME280;5572;49.540;11.932;2024-02-14T00:05:07;97612.84;;;0.80;100.00
11038;BME280;5572;49.540;11.932;2024-02-14T00:07:37;97615.72;;;0.72;100.00
11038;BME280;5572;49.540;11.932;2024-02-14T00:17:25;97612.06;;;1.05;100.00
11038;BME280;5572;49.540;11.932;2024-02-14T00:20:01;97621.06;;;1.11;100.00
11038;BME280;5572;49.540;11.932;2024-02-14T00:23:11;97610.22;;;1.19;100.00
11038;BME280;5572;49.540;11.932;2024-02-14T00:25:40;97600.59;;;1.31;100.00
11038;BME280;5572;49.540;11.932;2024-02-14T00:28:15;97612.47;;;1.28;100.00
11038;BME280;5572;49.540;11.932;2024-02-14T00:31:02;97608.34;;;1.32;100.00
11038;BME280;5572;49.540;11.932;2024-02-14T00:33:51;97607.94;;;1.29;100.00
11038;BME280;5572;49.540;11.932;2024-02-14T00:40:00;97606.09;;;1.42;100.00
11038;BME280;5572;49.540;11.932;2024-02-14T00:42:43;97605.28;;;1.55;100.00
11038;BME280;5572;49.540;11.932;2024-02-14T00:54:40;97629.44;;;1.60;100.00
11038;BME280;5572;49.540;11.932;2024-02-14T00:57:09;97627.59;;;1.54;100.00
11038;BME280;5572;49.540;11.932;2024-02-14T01:06:00;97622.47;;;1.52;100.00
11038;BME280;5572;49.540;11.932;2024-02-14T01:16:30;97627.38;;;1.55;100.00
11038;BME280;5572;49.540;11.932;2024-02-14T01:22:44;97633.16;;;1.20;100.00
11038;BME280;5572;49.540;11.932;2024-02-14T01:26:43;97623.13;;;1.35;100.00
11038;BME280;5572;49.540;11.932;2024-02-14T01:29:29;97617.78;;;1.35;100.00
11038;BME280;5572;49.540;11.932;2024-02-14T01:32:39;97621.44;;;1.40;100.00
11038;BME280;5572;49.540;11.932;2024-02-14T01:35:35;97621.44;;;1.47;100.00
11038;BME280;5572;49.540;11.932;2024-02-14T01:38:11;97633.97;;;1.27;100.00
11038;BME280;5572;49.540;11.932;2024-02-14T01:41:31;97622.50;;;1.39;100.00
11038;BME280;5572;49.540;11.932;2024-02-14T01:50:13;97620.97;;;1.75;100.00
11038;BME280;5572;49.540;11.932;2024-02-14T01:52:48;97627.78;;;1.65;100.00
11038;BME280;5572;49.540;11.932;2024-02-14T01:55:27;97606.06;;;1.74;100.00
11038;BME280;5572;49.540;11.932;2024-02-14T02:01:17;97622.84;;;1.75;100.00
11038;BME280;5572;49.540;11.932;2024-02-14T02:03:52;97604.56;;;1.85;100.00
11038;BME280;5572;49.540;11.932;2024-02-14T02:06:45;97601.06;;;1.91;100.00
11038;BME280;5572;49.540;11.932;2024-02-14T02:09:18;97599.66;;;1.82;100.00
11038;BME280;5572;49.540;11.932;2024-02-14T02:15:28;97592.28;;;1.77;100.00
11038;BME280;5572;49.540;11.932;2024-02-14T04:40:20;97555.53;;;3.40;100.00
11038;BME280;5572;49.540;11.932;2024-02-14T04:42:48;97542.59;;;3.43;100.00
11038;BME280;5572;49.540;11.932;2024-02-14T04:45:16;97549.53;;;3.44;100.00
11038;BME280;5572;49.540;11.932;2024-02-14T04:47:44;97548.56;;;3.63;100.00
11038;BME280;5572;49.540;11.932;2024-02-14T04:50:12;97544.97;;;3.87;100.00
11038;BME280;5572;49.540;11.932;2024-02-14T04:52:40;97554.63;;;3.70;100.00
11038;BME280;5572;49.540;11.932;2024-02-14T04:55:08;97544.59;;;3.84;100.00
11038;BME280;5572;49.540;11.932;2024-02-14T04:57:38;97547.94;;;3.79;100.00
11038;BME280;5572;49.540;11.932;2024-02-14T05:00:07;97550.69;;;3.73;100.00
11038;BME280;5572;49.540;11.932;2024-02-14T05:02:35;97536.50;;;3.90;100.00
11038;BME280;5572;49.540;11.932;2024-02-14T05:05:04;97531.06;;;3.61;100.00
11038;BME280;5572;49.540;11.932;2024-02-14T05:07:32;97528.47;;;3.54;100.00
11038;BME280;5572;49.540;11.932;2024-02-14T05:10:04;97543.78;;;3.23;100.00
11038;BME280;5572;49.540;11.932;2024-02-14T05:13:00;97520.75;;;3.64;100.00
11038;BME280;5572;49.540;11.932;2024-02-14T05:15:36;97525.72;;;3.61;100.00
11038;BME280;5572;49.540;11.932;2024-02-14T05:18:06;97537.38;;;3.48;100.00
11038;BME280;5572;49.540;11.932;2024-02-14T05:20:35;97552.03;;;3.22;100.00
11038;BME280;5572;49.540;11.932;2024-02-14T05:23:04;97553.09;;;3.38;100.00
11038;BME280;5572;49.540;11.932;2024-02-14T05:25:32;97552.72;;;3.35;100.00
11038;BME280;5572;49.540;11.932;2024-02-14T05:28:02;97555.06;;;3.49;100.00
11038;BME280;5572;49.540;11.932;2024-02-14T05:30:30;97551.97;;;3.70;100.00
11038;BME280;5572;49.540;11.932;2024-02-14T05:32:59;97549.72;;;3.85;100.00
11038;BME280;5572;49.540;11.932;2024-02-14T05:35:27;97556.28;;;3.71;100.00
11038;BME280;5572;49.540;11.932;2024-02-14T05:37:55;97561.84;;;3.88;100.00
11038;BME280;5572;49.540;11.932;2024-02-14T05:40:23;97561.25;;;3.86;100.00
11038;BME280;5572;49.540;11.932;2024-02-14T05:42:51;97566.66;;;3.97;100.00
11038;BME280;5572;49.540;11.932;2024-02-14T05:45:21;97570.91;;;4.05;100.00
11038;BME280;5572;49.540;11.932;2024-02-14T05:47:48;97580.47;;;4.12;100.00
11038;BME280;5572;49.540;11.932;2024-02-14T05:50:18;97595.34;;;3.72;100.00
11038;BME280;5572;49.540;11.932;2024-02-14T05:52:45;97604.94;;;3.55;100.00
11038;BME280;5572;49.540;11.932;2024-02-14T05:55:12;97603.41;;;3.66;100.00
11038;BME280;5572;49.540;11.932;2024-02-14T05:57:41;97601.09;;;3.69;100.00
11038;BME280;5572;49.540;11.932;2024-02-14T06:00:09;97602.22;;;3.62;100.00
11038;BME280;5572;49.540;11.932;2024-02-14T06:02:39;97604.31;;;3.78;100.00
11038;BME280;5572;49.540;11.932;2024-02-14T06:05:07;97609.44;;;3.79;100.00
11038;BME280;5572;49.540;11.932;2024-02-14T06:07:35;97607.72;;;3.67;100.00
11038;BME280;5572;49.540;11.932;2024-02-14T06:10:04;97612.84;;;3.68;100.00
11038;BME280;5572;49.540;11.932;2024-02-14T06:12:32;97613.72;;;3.62;100.00
11038;BME280;5572;49.540;11.932;2024-02-14T06:15:00;97618.69;;;3.59;100.00
11038;BME280;5572;49.540;11.932;2024-02-14T06:17:28;97614.63;;;3.74;100.00
11038;BME280;5572;49.540;11.932;2024-02-14T06:19:58;97626.88;;;3.82;100.00
11038;BME280;5572;49.540;11.932;2024-02-14T06:22:26;97626.53;;;3.96;100.00
11038;BME280;5572;49.540;11.932;2024-02-14T06:24:53;97628.16;;;3.97;100.00
11038;BME280;5572;49.540;11.932;2024-02-14T06:27:21;97629.00;;;4.16;100.00
11038;BME280;5572;49.540;11.932;2024-02-14T06:29:50;97626.16;;;4.11;100.00
11038;BME280;5572;49.540;11.932;2024-02-14T06:32:19;97627.19;;;4.10;100.00
11038;BME280;5572;49.540;11.932;2024-02-14T06:34:47;97631.31;;;4.12;100.00
11038;BME280;5572;49.540;11.932;2024-02-14T06:37:16;97636.66;;;4.12;100.00
11038;BME280;5572;49.540;11.932;2024-02-14T06:39:44;97633.31;;;4.17;100.00
11038;BME280;5572;49.540;11.932;2024-02-14T06:42:12;97631.75;;;4.27;100.00
11038;BME280;5572;49.540;11.932;2024-02-14T06:44:40;97630.25;;;4.31;100.00
11038;BME280;5572;49.540;11.932;2024-02-14T06:47:08;97638.19;;;4.20;100.00
11038;BME280;5572;49.540;11.932;2024-02-14T06:49:37;97619.47;;;4.20;100.00
11038;BME280;5572;49.540;11.932;2024-02-14T06:52:05;97621.63;;;4.29;100.00
11038;BME280;5572;49.540;11.932;2024-02-14T07:04:47;97617.59;;;4.85;100.00
11038;BME280;5572;49.540;11.932;2024-02-14T07:07:17;97630.22;;;4.67;100.00
11038;BME280;5572;49.540;11.932;2024-02-14T07:09:45;97627.94;;;4.52;100.00
11038;BME280;5572;49.540;11.932;2024-02-14T07:12:17;97637.47;;;4.13;100.00
11038;BME280;5572;49.540;11.932;2024-02-14T07:14:48;97617.56;;;4.26;100.00
11038;BME280;5572;49.540;11.932;2024-02-14T07:17:18;97611.47;;;4.67;100.00
11038;BME280;5572;49.540;11.932;2024-02-14T07:19:54;97605.78;;;4.75;100.00
11038;BME280;5572;49.540;11.932;2024-02-14T07:22:25;97598.16;;;4.90;100.00
11038;BME280;5572;49.540;11.932;2024-02-14T07:24:57;97606.28;;;4.83;100.00
11038;BME280;5572;49.540;11.932;2024-02-14T07:27:26;97610.38;;;4.86;100.00
11038;BME280;5572;49.540;11.932;2024-02-14T07:29:54;97611.63;;;4.72;100.00
11038;BME280;5572;49.540;11.932;2024-02-14T07:32:24;97600.06;;;5.01;100.00
11038;BME280;5572;49.540;11.932;2024-02-14T07:34:56;97619.66;;;4.72;100.00
11038;BME280;5572;49.540;11.932;2024-02-14T07:37:24;97629.19;;;4.97;100.00
11038;BME280;5572;49.540;11.932;2024-02-14T07:44:55;97625.63;;;5.26;100.00
11038;BME280;5572;49.540;11.932;2024-02-14T07:47:23;97643.00;;;5.23;100.00
11038;BME280;5572;49.540;11.932;2024-02-14T07:49:51;97641.63;;;5.55;100.00
11038;BME280;5572;49.540;11.932;2024-02-14T07:52:22;97645.09;;;5.33;100.00
11038;BME280;5572;49.540;11.932;2024-02-14T07:54:52;97652.94;;;5.46;100.00
11038;BME280;5572;49.540;11.932;2024-02-14T07:57:22;97643.13;;;5.28;100.00
11038;BME280;5572;49.540;11.932;2024-02-14T07:59:52;97636.16;;;5.50;100.00
11038;BME280;5572;49.540;11.932;2024-02-14T08:02:21;97641.63;;;5.44;100.00
11038;BME280;5572;49.540;11.932;2024-02-14T08:04:49;97625.09;;;5.58;100.00
11038;BME280;5572;49.540;11.932;2024-02-14T08:07:23;97611.47;;;6.28;100.00
11038;BME280;5572;49.540;11.932;2024-02-14T08:09:55;97606.47;;;6.60;100.00
11038;BME280;5572;49.540;11.932;2024-02-14T08:12:24;97588.41;;;6.99;100.00
11038;BME280;5572;49.540;11.932;2024-02-14T08:14:56;97594.31;;;6.57;100.00
11038;BME280;5572;49.540;11.932;2024-02-14T08:17:30;97608.59;;;6.46;100.00
11038;BME280;5572;49.540;11.932;2024-02-14T08:19:59;97591.72;;;6.62;100.00
11038;BME280;5572;49.540;11.932;2024-02-14T08:22:32;97583.28;;;7.14;100.00
11038;BME280;5572;49.540;11.932;2024-02-14T08:25:18;97580.47;;;7.37;100.00
11038;BME280;5572;49.540;11.932;2024-02-14T08:27:54;97576.97;;;7.53;100.00
11038;BME280;5572;49.540;11.932;2024-02-14T08:30:21;97609.34;;;6.70;100.00
11038;BME280;5572;49.540;11.932;2024-02-14T08:32:50;97590.84;;;7.01;100.00
11038;BME280;5572;49.540;11.932;2024-02-14T08:35:18;97598.97;;;6.62;100.00
11038;BME280;5572;49.540;11.932;2024-02-14T08:37:49;97559.53;;;7.56;100.00
11038;BME280;5572;49.540;11.932;2024-02-14T08:40:16;97561.47;;;7.27;100.00
11038;BME280;5572;49.540;11.932;2024-02-14T08:42:45;97548.19;;;7.54;100.00
11038;BME280;5572;49.540;11.932;2024-02-14T08:45:13;97554.78;;;6.97;100.00
11038;BME280;5572;49.540;11.932;2024-02-14T08:47:43;97542.16;;;7.30;100.00
11038;BME280;5572;49.540;11.932;2024-02-14T08:50:12;97558.69;;;7.06;100.00
11038;BME280;5572;49.540;11.932;2024-02-14T08:52:41;97562.75;;;6.92;100.00
11038;BME280;5572;49.540;11.932;2024-02-14T08:55:10;97557.50;;;6.85;100.00
11038;BME280;5572;49.540;11.932;2024-02-14T08:57:43;97555.19;;;7.05;100.00
11038;BME280;5572;49.540;11.932;2024-02-14T09:00:15;97544.44;;;7.05;100.00
11038;BME280;5572;49.540;11.932;2024-02-14T09:03:16;97539.97;;;7.44;100.00
11038;BME280;5572;49.540;11.932;2024-02-14T09:06:00;97536.19;;;7.61;100.00
11038;BME280;5572;49.540;11.932;2024-02-14T09:08:48;97549.50;;;7.35;100.00
11038;BME280;5572;49.540;11.932;2024-02-14T09:14:49;97529.97;;;7.77;100.00
11038;BME280;5572;49.540;11.932;2024-02-14T09:17:35;97539.94;;;7.60;100.00
11038;BME280;5572;49.540;11.932;2024-02-14T09:20:21;97518.41;;;7.98;100.00
11038;BME280;5572;49.540;11.932;2024-02-14T09:22:52;97521.47;;;7.85;100.00
11038;BME280;5572;49.540;11.932;2024-02-14T09:25:26;97513.88;;;7.98;100.00
11038;BME280;5572;49.540;11.932;2024-02-14T09:28:01;97489.00;;;8.13;100.00
11038;BME280;5572;49.540;11.932;2024-02-14T09:30:33;97479.66;;;8.42;100.00
11038;BME280;5572;49.540;11.932;2024-02-14T09:33:14;97479.72;;;8.04;100.00
11038;BME280;5572;49.540;11.932;2024-02-14T16:26:00;97298.31;;;9.80;100.00
11038;BME280;5572;49.540;11.932;2024-02-14T16:28:26;97304.25;;;9.82;100.00
11038;BME280;5572;49.540;11.932;2024-02-14T16:30:55;97322.03;;;9.78;100.00
11038;BME280;5572;49.540;11.932;2024-02-14T16:33:22;97322.50;;;9.55;100.00
11038;BME280;5572;49.540;11.932;2024-02-14T16:35:48;97301.19;;;9.58;100.00
11038;BME280;5572;49.540;11.932;2024-02-14T16:38:15;97302.84;;;9.64;100.00
11038;BME280;5572;49.540;11.932;2024-02-14T16:40:42;97305.53;;;9.64;100.00
11038;BME280;5572;49.540;11.932;2024-02-14T16:43:10;97315.94;;;9.36;100.00
11038;BME280;5572;49.540;11.932;2024-02-14T16:45:36;97282.34;;;9.73;100.00
11038;BME280;5572;49.540;11.932;2024-02-14T16:48:04;97293.13;;;9.63;100.00
11038;BME280;5572;49.540;11.932;2024-02-14T16:50:31;97287.75;;;9.73;100.00
11038;BME280;5572;49.540;11.932;2024-02-14T16:52:57;97287.16;;;9.61;100.00
11038;BME280;5572;49.540;11.932;2024-02-14T16:55:24;97277.75;;;9.69;100.00
11038;BME280;5572;49.540;11.932;2024-02-14T16:57:51;97284.75;;;9.60;100.00
11038;BME280;5572;49.540;11.932;2024-02-14T17:00:19;97285.22;;;9.47;100.00
11038;BME280;5572;49.540;11.932;2024-02-14T17:02:46;97256.69;;;9.61;100.00
11038;BME280;5572;49.540;11.932;2024-02-14T17:05:13;97286.88;;;9.53;100.00
11038;BME280;5572;49.540;11.932;2024-02-14T17:07:39;97277.72;;;9.59;100.00
11038;BME280;5572;49.540;11.932;2024-02-14T17:10:07;97266.41;;;9.67;100.00
11038;BME280;5572;49.540;11.932;2024-02-14T17:12:34;97282.03;;;9.55;100.00
11038;BME280;5572;49.540;11.932;2024-02-14T17:15:00;97270.44;;;9.59;100.00
11038;BME280;5572;49.540;11.932;2024-02-14T17:17:28;97268.56;;;9.60;100.00
11038;BME280;5572;49.540;11.932;2024-02-14T17:19:55;97279.06;;;9.56;100.00
11038;BME280;5572;49.540;11.932;2024-02-14T17:22:22;97282.84;;;9.60;100.00
11038;BME280;5572;49.540;11.932;2024-02-14T17:24:48;97284.44;;;9.46;100.00
11038;BME280;5572;49.540;11.932;2024-02-14T17:27:20;97278.22;;;9.41;100.00
11038;BME280;5572;49.540;11.932;2024-02-14T17:29:47;97268.25;;;9.51;100.00
11038;BME280;5572;49.540;11.932;2024-02-14T17:32:13;97270.13;;;9.46;100.00
11038;BME280;5572;49.540;11.932;2024-02-14T17:34:42;97285.22;;;9.42;100.00
11038;BME280;5572;49.540;11.932;2024-02-14T17:37:08;97277.16;;;9.57;100.00
11038;BME280;5572;49.540;11.932;2024-02-14T17:39:35;97276.09;;;9.58;100.00
11038;BME280;5572;49.540;11.932;2024-02-14T17:42:02;97283.06;;;9.44;100.00
11038;BME280;5572;49.540;11.932;2024-02-14T17:44:29;97284.69;;;9.40;100.00
11038;BME280;5572;49.540;11.932;2024-02-14T17:46:55;97287.63;;;9.38;100.00
11038;BME280;5572;49.540;11.932;2024-02-14T17:49:22;97275.53;;;9.51;100.00
11038;BME280;5572;49.540;11.932;2024-02-14T17:51:50;97292.44;;;9.27;100.00
11038;BME280;5572;49.540;11.932;2024-02-14T17:54:17;97273.59;;;9.41;100.00
11038;BME280;5572;49.540;11.932;2024-02-14T17:56:44;97267.97;;;9.48;100.00
11038;BME280;5572;49.540;11.932;2024-02-14T17:59:11;97273.38;;;9.48;100.00
11038;BME280;5572;49.540;11.932;2024-02-14T18:01:39;97276.91;;;9.58;100.00
11038;BME280;5572;49.540;11.932;2024-02-14T18:04:07;97276.06;;;9.48;100.00
11038;BME280;5572;49.540;11.932;2024-02-14T18:06:34;97279.06;;;9.56;100.00
11038;BME280;5572;49.540;11.932;2024-02-14T18:09:02;97283.09;;;9.54;100.00
11038;BME280;5572;49.540;11.932;2024-02-14T18:11:29;97271.22;;;9.55;100.00
11038;BME280;5572;49.540;11.932;2024-02-14T18:13:56;97273.91;;;9.55;100.00
11038;BME280;5572;49.540;11.932;2024-02-14T18:16:23;97264.22;;;9.59;100.00
11038;BME280;5572;49.540;11.932;2024-02-14T18:18:49;97259.41;;;9.71;100.00
11038;BME280;5572;49.540;11.932;2024-02-14T18:21:16;97268.84;;;9.73;100.00
11038;BME280;5572;49.540;11.932;2024-02-14T18:23:43;97270.22;;;9.71;100.00
11038;BME280;5572;49.540;11.932;2024-02-14T18:26:11;97279.28;;;9.45;100.00
11038;BME280;5572;49.540;11.932;2024-02-14T18:28:38;97263.94;;;9.50;100.00
11038;BME280;5572;49.540;11.932;2024-02-14T18:31:04;97253.16;;;9.60;100.00
11038;BME280;5572;49.540;11.932;2024-02-14T18:33:33;97248.53;;;9.41;100.00
11038;BME280;5572;49.540;11.932;2024-02-14T18:36:00;97237.94;;;9.30;100.00
11038;BME280;5572;49.540;11.932;2024-02-14T18:38:29;97223.41;;;9.36;100.00
11038;BME280;5572;49.540;11.932;2024-02-14T18:40:57;97227.72;;;9.27;100.00
11038;BME280;5572;49.540;11.932;2024-02-14T18:43:26;97203.19;;;9.33;100.00
11038;BME280;5572;49.540;11.932;2024-02-14T18:45:53;97202.34;;;9.33;100.00
11038;BME280;5572;49.540;11.932;2024-02-14T18:48:20;97198.34;;;9.40;100.00
11038;BME280;5572;49.540;11.932;2024-02-14T18:50:46;97200.47;;;9.28;100.00
11038;BME280;5572;49.540;11.932;2024-02-14T18:53:13;97211.44;;;9.07;100.00
11038;BME280;5572;49.540;11.932;2024-02-14T18:55:40;97188.59;;;9.29;100.00
11038;BME280;5572;49.540;11.932;2024-02-14T18:58:07;97191.81;;;9.26;100.00
11038;BME280;5572;49.540;11.932;2024-02-14T19:00:35;97188.56;;;9.24;100.00
11038;BME280;5572;49.540;11.932;2024-02-14T19:03:02;97185.63;;;9.31;100.00
11038;BME280;5572;49.540;11.932;2024-02-14T19:05:30;97177.81;;;9.44;100.00
11038;BME280;5572;49.540;11.932;2024-02-14T19:07:57;97182.97;;;9.45;100.00
11038;BME280;5572;49.540;11.932;2024-02-14T19:10:24;97189.16;;;9.31;100.00
11038;BME280;5572;49.540;11.932;2024-02-14T19:12:50;97186.47;;;9.46;100.00
11038;BME280;5572;49.540;11.932;2024-02-14T19:15:17;97187.03;;;9.53;100.00
11038;BME280;5572;49.540;11.932;2024-02-14T19:17:47;97196.19;;;9.42;100.00
11038;BME280;5572;49.540;11.932;2024-02-14T19:20:14;97192.13;;;9.39;100.00
11038;BME280;5572;49.540;11.932;2024-02-14T19:22:41;97195.38;;;9.37;100.00
11038;BME280;5572;49.540;11.932;2024-02-14T19:25:08;97190.53;;;9.43;100.00
11038;BME280;5572;49.540;11.932;2024-02-14T19:27:34;97190.22;;;9.35;100.00
11038;BME280;5572;49.540;11.932;2024-02-14T19:30:03;97190.25;;;9.40;100.00
11038;BME280;5572;49.540;11.932;2024-02-14T19:32:29;97190.78;;;9.42;100.00
11038;BME280;5572;49.540;11.932;2024-02-14T19:34:56;97192.72;;;9.56;100.00
11038;BME280;5572;49.540;11.932;2024-02-14T19:37:23;97201.34;;;9.53;100.00
11038;BME280;5572;49.540;11.932;2024-02-14T19:39:50;97197.03;;;9.57;100.00
11038;BME280;5572;49.540;11.932;2024-02-14T19:42:17;97186.19;;;9.38;100.00
11038;BME280;5572;49.540;11.932;2024-02-14T19:44:44;97203.66;;;9.10;100.00
11038;BME280;5572;49.540;11.932;2024-02-14T19:47:11;97196.59;;;8.99;100.00
11038;BME280;5572;49.540;11.932;2024-02-14T19:49:37;97203.88;;;9.04;100.00
11038;BME280;5572;49.540;11.932;2024-02-14T19:52:06;97198.78;;;9.07;100.00
11038;BME280;5572;49.540;11.932;2024-02-14T19:54:35;97189.91;;;9.17;100.00
11038;BME280;5572;49.540;11.932;2024-02-14T19:57:01;97199.63;;;9.18;100.00
11038;BME280;5572;49.540;11.932;2024-02-14T19:59:28;97184.56;;;9.32;100.00
11038;BME280;5572;49.540;11.932;2024-02-14T20:01:55;97187.50;;;9.20;100.00
11038;BME280;5572;49.540;11.932;2024-02-14T20:04:22;97187.22;;;9.17;100.00
11038;BME280;5572;49.540;11.932;2024-02-14T20:06:49;97187.75;;;9.14;100.00
11038;BME280;5572;49.540;11.932;2024-02-14T20:09:20;97194.75;;;9.15;100.00
11038;BME280;5572;49.540;11.932;2024-02-14T20:11:47;97192.84;;;9.15;100.00
11038;BME280;5572;49.540;11.932;2024-02-14T20:14:13;97199.91;;;9.26;100.00
11038;BME280;5572;49.540;11.932;2024-02-14T20:16:40;97205.53;;;9.15;100.00
11038;BME280;5572;49.540;11.932;2024-02-14T20:19:06;97203.41;;;9.17;100.00
11038;BME280;5572;49.540;11.932;2024-02-14T20:21:33;97203.72;;;9.30;100.00
11038;BME280;5572;49.540;11.932;2024-02-14T20:24:00;97198.31;;;9.30;100.00
11038;BME280;5572;49.540;11.932;2024-02-14T20:26:33;97203.44;;;9.27;100.00
11038;BME280;5572;49.540;11.932;2024-02-14T20:28:59;97195.88;;;9.24;100.00
11038;BME280;5572;49.540;11.932;2024-02-14T20:31:27;97208.03;;;9.31;100.00
11038;BME280;5572;49.540;11.932;2024-02-14T20:33:54;97222.56;;;9.20;100.00
11038;BME280;5572;49.540;11.932;2024-02-14T20:36:20;97227.41;;;9.18;100.00
11038;BME280;5572;49.540;11.932;2024-02-14T20:38:47;97224.22;;;9.31;100.00
11038;BME280;5572;49.540;11.932;2024-02-14T20:41:15;97219.34;;;9.28;100.00
11038;BME280;5572;49.540;11.932;2024-02-14T20:43:43;97214.75;;;9.24;100.00
11038;BME280;5572;49.540;11.932;2024-02-14T20:46:09;97218.19;;;9.14;100.00
11038;BME280;5572;49.540;11.932;2024-02-14T20:48:38;97207.44;;;9.19;100.00
11038;BME280;5572;49.540;11.932;2024-02-14T20:51:05;97202.06;;;9.19;100.00
11038;BME280;5572;49.540;11.932;2024-02-14T20:53:31;97201.25;;;9.29;100.00
11038;BME280;5572;49.540;11.932;2024-02-14T20:55:59;97208.56;;;9.28;100.00
11038;BME280;5572;49.540;11.932;2024-02-14T20:58:27;97209.13;;;9.40;100.00
11038;BME280;5572;49.540;11.932;2024-02-14T21:00:54;97208.84;;;9.37;100.00
11038;BME280;5572;49.540;11.932;2024-02-14T21:03:21;97216.84;;;9.12;100.00
11038;BME280;5572;49.540;11.932;2024-02-14T21:05:48;97206.63;;;9.14;100.00
11038;BME280;5572;49.540;11.932;2024-02-14T21:08:14;97220.13;;;9.24;100.00
11038;BME280;5572;49.540;11.932;2024-02-14T21:10:41;97210.44;;;9.28;100.00
11038;BME280;5572;49.540;11.932;2024-02-14T21:13:08;97221.25;;;9.28;100.00
11038;BME280;5572;49.540;11.932;2024-02-14T21:15:35;97221.25;;;9.28;100.00
11038;BME280;5572;49.540;11.932;2024-02-14T21:18:04;97222.31;;;9.32;100.00
11038;BME280;5572;49.540;11.932;2024-02-14T21:20:30;97230.16;;;9.33;100.00
11038;BME280;5572;49.540;11.932;2024-02-14T21:22:57;97229.34;;;9.28;100.00
11038;BME280;5572;49.540;11.932;2024-02-14T21:25:24;97215.56;;;9.29;100.00
11038;BME280;5572;49.540;11.932;2024-02-14T21:27:51;97222.84;;;9.24;100.00
11038;BME280;5572;49.540;11.932;2024-02-14T21:30:18;97229.56;;;9.26;100.00
11038;BME280;5572;49.540;11.932;2024-02-14T21:32:45;97240.88;;;9.18;100.00
11038;BME280;5572;49.540;11.932;2024-02-14T21:35:13;97233.59;;;9.19;100.00
11038;BME280;5572;49.540;11.932;2024-02-14T21:37:39;97233.91;;;9.22;100.00
11038;BME280;5572;49.540;11.932;2024-02-14T21:40:07;97232.56;;;9.25;100.00
11038;BME280;5572;49.540;11.932;2024-02-14T21:42:36;97234.69;;;9.18;100.00
11038;BME280;5572;49.540;11.932;2024-02-14T21:45:03;97237.16;;;9.29;100.00
11038;BME280;5572;49.540;11.932;2024-02-14T21:47:30;97236.56;;;9.17;100.00
11038;BME280;5572;49.540;11.932;2024-02-14T21:49:57;97237.38;;;9.18;100.00
11038;BME280;5572;49.540;11.932;2024-02-14T21:52:25;97235.81;;;9.27;100.00
11038;BME280;5572;49.540;11.932;2024-02-14T21:54:52;97226.28;;;9.14;100.00
11038;BME280;5572;49.540;11.932;2024-02-14T21:57:19;97229.84;;;9.25;100.00
